Quetta, Pakistan
Current Conditions -  °F | °C
As of 5:55 PM on Thursday 18 Dec 2014 (Local Time) from KQHN Reporting Station
Sand / Dust Storm Sand / Dust Storm  
Wind Chill: 54°   Ceiling: 10000
Heat Index: 54°   Visibility: 4mi
Dew Point:   Wind: 16mph
Humidity: 15%   Direction: 260°W
Pressure: 30.15"   Gusts: 23mph
Location:  30.21°N, 67.02°E
Report Text: KQHN 181255Z 26014G20KT 6000 BLDU FEW080 BKN100 12/M14 A3015 RMK SLP195 Q1021 DA3561
Loading
Personal Weather Stations






























Interactive Weather Map New forecast layout! Learn more

10-Day Weather Forecast

Advertisements
Track Severe Weather on mobile